Time;durP1;ratioP1;P1;durP2;ratioP2;P2;SDS_P1;SDS_P2;PMS_P1;PMS_P2;Temp;Humidity;BMP_temperature;BMP_pressure;BME280_temperature;BME280_humidity;BME280_pressure;Samples;Min_cycle;Max_cycle;Signal;HPM_P1;HPM_P2
2022/03/16 00:03:55;;;;;;;53.40;25.13;;;;;;;;;;8399337;28;20067;-75
2022/03/16 00:07:58;;;;;;;43.00;20.38;;;;;;;;;;8402357;28;20045;-77
2022/03/16 00:12:01;;;;;;;;;;;;;;;;;;8402804;28;20488;-77
2022/03/16 00:16:04;;;;;;;35.35;17.00;;;;;;;;;;8401614;28;19920;-76
2022/03/16 00:20:08;;;;;;;44.45;19.08;;;;;;;;;;8401343;28;20176;-77
2022/03/16 00:24:11;;;;;;;40.10;19.15;;;;;;;;;;8401902;28;20068;-76
2022/03/16 00:28:14;;;;;;;39.53;18.23;;;;;;;;;;8401360;28;20472;-77
2022/03/16 00:32:17;;;;;;;93.00;35.80;;;;;;;;;;8400858;28;20056;-76
2022/03/16 00:36:21;;;;;;;245.80;81.68;;;;;;;;;;8401231;28;20463;-78
2022/03/16 00:40:24;;;;;;;65.53;27.15;;;;;;;;;;8400518;28;20051;-77
2022/03/16 00:44:28;;;;;;;52.22;25.10;;;;;;;;;;8400793;28;20048;-77
2022/03/16 00:48:31;;;;;;;42.75;22.08;;;;;;;;;;8399212;28;20041;-77
2022/03/16 00:52:33;;;;;;;46.42;22.35;;;;;;;;;;8400423;28;20048;-77
2022/03/16 00:56:37;;;;;;;60.40;24.92;;;;;;;;;;8400141;28;20052;-77
2022/03/16 01:00:41;;;;;;;53.22;26.38;;;;;;;;;;8399907;28;20057;-76
2022/03/16 01:04:44;;;;;;;53.08;24.23;;;;;;;;;;8400237;28;20044;-77
2022/03/16 01:08:47;;;;;;;48.92;24.38;;;;;;;;;;8400245;28;20044;-77
2022/03/16 01:12:50;;;;;;;49.38;24.10;;;;;;;;;;8399405;28;20052;-77
2022/03/16 01:16:53;;;;;;;50.30;22.83;;;;;;;;;;8399361;28;20044;-76
2022/03/16 01:20:56;;;;;;;53.63;23.95;;;;;;;;;;8399931;28;20041;-77
2022/03/16 01:24:58;;;;;;;59.63;24.75;;;;;;;;;;8400026;28;20071;-77
2022/03/16 01:29:02;;;;;;;68.82;27.45;;;;;;;;;;8399190;28;20044;-76
2022/03/16 01:33:05;;;;;;;54.08;25.40;;;;;;;;;;8398976;28;20045;-76
2022/03/16 01:37:08;;;;;;;63.22;30.25;;;;;;;;;;8399265;28;20048;-75
2022/03/16 01:41:11;;;;;;;55.40;25.13;;;;;;;;;;8399023;28;20059;-76
2022/03/16 01:45:13;;;;;;;47.25;23.77;;;;;;;;;;8398936;28;20131;-75
2022/03/16 01:49:17;;;;;;;63.83;28.83;;;;;;;;;;8398349;28;20068;-78
2022/03/16 01:53:20;;;;;;;53.50;25.38;;;;;;;;;;8398058;28;20049;-76
2022/03/16 01:57:23;;;;;;;53.97;24.63;;;;;;;;;;8398246;28;20496;-77
2022/03/16 02:01:25;;;;;;;66.15;33.42;;;;;;;;;;8398511;28;20492;-76
2022/03/16 02:05:30;;;;;;;69.22;31.08;;;;;;;;;;8398135;28;20049;-76
2022/03/16 02:09:34;;;;;;;78.20;29.00;;;;;;;;;;8397920;28;20045;-77
2022/03/16 02:13:36;;;;;;;63.33;29.15;;;;;;;;;;8397750;28;20048;-76
2022/03/16 02:17:40;;;;;;;52.25;25.15;;;;;;;;;;8397921;28;20543;-77
2022/03/16 02:21:49;;;;;;;53.63;26.08;;;;;;;;;;8397477;28;20052;-76
2022/03/16 02:25:54;;;;;;;48.03;24.40;;;;;;;;;;8398010;28;20040;-77
2022/03/16 02:29:57;;;;;;;70.82;33.78;;;;;;;;;;8397930;28;20048;-76
2022/03/16 02:33:59;;;;;;;75.18;33.58;;;;;;;;;;8398197;28;20048;-76
2022/03/16 02:38:03;;;;;;;66.03;29.05;;;;;;;;;;8397419;28;20068;-76
2022/03/16 02:42:08;;;;;;;57.85;26.90;;;;;;;;;;8397776;28;20131;-76
2022/03/16 02:46:10;;;;;;;86.85;32.28;;;;;;;;;;8364126;28;20060;-77
2022/03/16 02:50:14;;;;;;;49.80;23.65;;;;;;;;;;8363759;28;20493;-77
2022/03/16 02:54:16;;;;;;;50.80;23.70;;;;;;;;;;8381338;28;20135;-76
2022/03/16 02:58:21;;;;;;;48.35;22.98;;;;;;;;;;8396606;28;20045;-77
2022/03/16 03:02:23;;;;;;;58.17;27.55;;;;;;;;;;8396602;28;20041;-77
2022/03/16 03:06:27;;;;;;;61.67;26.88;;;;;;;;;;8396677;28;20049;-76
2022/03/16 03:10:29;;;;;;;54.35;27.42;;;;;;;;;;8401025;28;20055;-78
2022/03/16 03:14:33;;;;;;;62.53;26.63;;;;;;;;;;8404083;28;20114;-76
2022/03/16 03:18:37;;;;;;;64.15;28.48;;;;;;;;;;8403214;28;20057;-75
2022/03/16 03:22:41;;;;;;;67.63;29.38;;;;;;;;;;8402896;28;20041;-77
2022/03/16 03:26:43;;;;;;;55.92;28.80;;;;;;;;;;8403283;28;20403;-76
2022/03/16 03:30:47;;;;;;;65.80;33.55;;;;;;;;;;8403172;28;20044;-76
2022/03/16 03:34:51;;;;;;;57.33;30.13;;;;;;;;;;8403112;28;20068;-76
2022/03/16 03:38:54;;;;;;;59.33;29.15;;;;;;;;;;8402635;28;20048;-76
2022/03/16 03:42:57;;;;;;;60.92;29.23;;;;;;;;;;8403213;28;20416;-76
2022/03/16 03:47:01;;;;;;;57.53;27.50;;;;;;;;;;8402907;28;20044;-77
2022/03/16 03:51:03;;;;;;;60.42;28.55;;;;;;;;;;8402410;28;20072;-77
2022/03/16 03:55:06;;;;;;;91.13;36.20;;;;;;;;;;8401923;28;20049;-77
2022/03/16 03:59:09;;;;;;;73.07;33.65;;;;;;;;;;8401993;28;20044;-77
2022/03/16 04:03:13;;;;;;;64.53;30.58;;;;;;;;;;8402228;28;20423;-77
2022/03/16 04:07:15;;;;;;;61.47;28.70;;;;;;;;;;8402348;28;20045;-76
2022/03/16 04:11:18;;;;;;;57.08;25.63;;;;;;;;;;8402151;28;20484;-77
2022/03/16 04:15:21;;;;;;;53.58;24.92;;;;;;;;;;8401805;28;20052;-77
2022/03/16 04:19:25;;;;;;;58.53;24.73;;;;;;;;;;8384650;28;20107;-77
2022/03/16 04:23:27;;;;;;;53.13;24.83;;;;;;;;;;8397247;28;20052;-76
2022/03/16 04:27:30;;;;;;;58.63;25.40;;;;;;;;;;8401312;28;20052;-78
2022/03/16 04:31:32;;;;;;;75.78;34.28;;;;;;;;;;8401355;28;20051;-77
2022/03/16 04:35:37;;;;;;;61.95;29.23;;;;;;;;;;8379265;28;20041;-78
2022/03/16 04:39:39;;;;;;;60.15;27.42;;;;;;;;;;8367450;28;20060;-78
2022/03/16 04:43:42;;;;;;;55.42;27.70;;;;;;;;;;8366964;28;20048;-77
2022/03/16 04:47:44;;;;;;;56.60;26.45;;;;;;;;;;8365988;28;20053;-77
2022/03/16 04:51:49;;;;;;;61.47;28.80;;;;;;;;;;8366845;28;20067;-77
2022/03/16 04:55:51;;;;;;;50.85;25.30;;;;;;;;;;8367190;28;20041;-77
2022/03/16 04:59:54;;;;;;;54.03;24.75;;;;;;;;;;8366845;28;20072;-77
2022/03/16 05:03:57;;;;;;;77.75;30.98;;;;;;;;;;8366340;28;20105;-77
2022/03/16 05:08:02;;;;;;;77.32;29.65;;;;;;;;;;8376770;28;20052;-78
2022/03/16 05:12:05;;;;;;;65.18;27.35;;;;;;;;;;8394198;28;20041;-77
2022/03/16 05:16:09;;;;;;;59.47;26.05;;;;;;;;;;8391264;28;20101;-77
2022/03/16 05:20:15;;;;;;;59.45;25.50;;;;;;;;;;8399105;28;20461;-79
2022/03/16 05:24:22;;;;;;;58.17;25.73;;;;;;;;;;8366340;28;20045;-77
2022/03/16 05:28:26;;;;;;;56.33;26.38;;;;;;;;;;8365910;28;20404;-78
2022/03/16 05:32:32;;;;;;;57.97;25.02;;;;;;;;;;8372148;28;20041;-77
2022/03/16 05:36:35;;;;;;;55.92;25.75;;;;;;;;;;8371815;28;20127;-78
2022/03/16 05:40:40;;;;;;;62.53;29.17;;;;;;;;;;8390929;28;20049;-77
2022/03/16 05:44:43;;;;;;;99.60;52.03;;;;;;;;;;8364957;28;20049;-77
2022/03/16 05:48:47;;;;;;;73.00;29.88;;;;;;;;;;8368710;28;20103;-76
2022/03/16 05:52:51;;;;;;;60.10;26.70;;;;;;;;;;8377632;28;20068;-77
2022/03/16 05:57:01;;;;;;;58.40;27.42;;;;;;;;;;8365107;28;20045;-77
2022/03/16 06:01:07;;;;;;;99.32;51.90;;;;;;;;;;8364794;28;20382;-77
2022/03/16 06:05:10;;;;;;;67.15;29.55;;;;;;;;;;8367217;28;20400;-75
2022/03/16 06:09:16;;;;;;;55.38;27.58;;;;;;;;;;8373785;28;20105;-77
2022/03/16 06:13:23;;;;;;;55.67;26.65;;;;;;;;;;8373718;28;20079;-76
2022/03/16 06:17:26;;;;;;;63.97;31.75;;;;;;;;;;8373520;28;20476;-77
2022/03/16 06:21:30;;;;;;;76.97;36.10;;;;;;;;;;8395476;28;20553;-78
2022/03/16 06:25:35;;;;;;;61.25;29.77;;;;;;;;;;8384452;28;20045;-78
2022/03/16 06:29:42;;;;;;;65.65;28.45;;;;;;;;;;8386012;28;20091;-78
2022/03/16 06:33:45;;;;;;;57.50;26.60;;;;;;;;;;8385282;28;20045;-77
2022/03/16 06:37:50;;;;;;;51.38;28.08;;;;;;;;;;8395321;28;20041;-76
2022/03/16 06:41:54;;;;;;;60.00;26.45;;;;;;;;;;8393181;28;20150;-77
2022/03/16 06:46:00;;;;;;;68.10;34.03;;;;;;;;;;8379937;28;20135;-77
2022/03/16 06:50:06;;;;;;;56.60;29.10;;;;;;;;;;8389554;28;20051;-77
2022/03/16 06:54:10;;;;;;;63.70;31.98;;;;;;;;;;8387298;28;20074;-77
2022/03/16 06:58:13;;;;;;;59.78;28.85;;;;;;;;;;8396551;28;20067;-77
2022/03/16 07:02:19;;;;;;;55.72;27.15;;;;;;;;;;8389702;28;20304;-77
2022/03/16 07:06:22;;;;;;;55.80;27.33;;;;;;;;;;8396192;28;20056;-76
2022/03/16 07:10:25;;;;;;;54.42;26.75;;;;;;;;;;8396461;28;20045;-77
2022/03/16 07:14:32;;;;;;;107.25;43.17;;;;;;;;;;8388019;28;20072;-76
2022/03/16 07:18:41;;;;;;;64.50;29.38;;;;;;;;;;8378455;28;20135;-77
2022/03/16 07:23:08;;;;;;;56.78;27.42;;;;;;;;;;8391218;28;20049;-77
2022/03/16 07:27:31;;;;;;;52.58;26.27;;;;;;;;;;8395804;28;20060;-78
2022/03/16 07:31:52;;;;;;;59.60;30.92;;;;;;;;;;8395082;28;20051;-77
2022/03/16 07:36:02;;;;;;;52.80;28.30;;;;;;;;;;8415137;28;20056;-76
2022/03/16 07:40:08;;;;;;;45.88;26.90;;;;;;;;;;8422620;28;20040;-76
2022/03/16 07:44:11;;;;;;;59.25;29.98;;;;;;;;;;8420561;28;20056;-75
2022/03/16 07:48:19;;;;;;;61.15;28.58;;;;;;;;;;8408015;28;20041;-76
2022/03/16 07:52:30;;;;;;;51.97;27.00;;;;;;;;;;8409163;28;20041;-77
2022/03/16 07:56:37;;;;;;;47.50;25.85;;;;;;;;;;8385904;28;20485;-78
2022/03/16 08:00:51;;;;;;;58.00;30.23;;;;;;;;;;8395066;28;20170;-77
2022/03/16 08:04:58;;;;;;;50.80;26.08;;;;;;;;;;8388207;28;20051;-76
2022/03/16 08:09:18;;;;;;;48.55;26.45;;;;;;;;;;8396658;28;20431;-76
2022/03/16 08:17:58;;;;;;;49.65;25.10;;;;;;;;;;8391244;28;20048;-76
2022/03/16 08:22:01;;;;;;;49.30;25.80;;;;;;;;;;8375305;28;20068;-76
2022/03/16 08:26:07;;;;;;;51.83;25.58;;;;;;;;;;8399591;28;20044;-77
2022/03/16 08:30:12;;;;;;;51.40;27.23;;;;;;;;;;8399021;28;20450;-77
2022/03/16 08:34:15;;;;;;;44.00;23.05;;;;;;;;;;8399058;28;20080;-76
2022/03/16 08:38:17;;;;;;;42.17;22.00;;;;;;;;;;8399076;28;20052;-77
2022/03/16 08:42:22;;;;;;;50.13;26.75;;;;;;;;;;8398639;28;20189;-77
2022/03/16 08:46:25;;;;;;;41.38;23.75;;;;;;;;;;8393775;28;20048;-76
2022/03/16 08:50:29;;;;;;;44.53;23.50;;;;;;;;;;8396265;28;20075;-77
2022/03/16 08:54:33;;;;;;;37.90;20.67;;;;;;;;;;8393688;28;20083;-78
2022/03/16 08:58:39;;;;;;;52.35;27.13;;;;;;;;;;8368690;28;20048;-77
2022/03/16 09:02:42;;;;;;;48.03;27.08;;;;;;;;;;8364538;28;20055;-78
2022/03/16 09:06:45;;;;;;;37.00;20.98;;;;;;;;;;8363602;28;20060;-77
2022/03/16 09:10:50;;;;;;;40.25;22.23;;;;;;;;;;8364653;28;20052;-77
2022/03/16 09:14:55;;;;;;;39.88;21.17;;;;;;;;;;8409624;28;20052;-77
2022/03/16 09:18:58;;;;;;;42.80;22.38;;;;;;;;;;8379973;28;1474860;-77
2022/03/16 09:23:01;;;;;;;36.78;21.08;;;;;;;;;;8432798;28;20054;-77
2022/03/16 09:27:05;;;;;;;36.78;19.63;;;;;;;;;;8433028;28;20048;-77
2022/03/16 09:31:10;;;;;;;39.50;20.42;;;;;;;;;;8402468;28;20056;-76
2022/03/16 09:35:12;;;;;;;47.97;27.13;;;;;;;;;;8399157;28;20440;-76
2022/03/16 09:39:17;;;;;;;37.25;22.58;;;;;;;;;;8398153;28;20514;-77
2022/03/16 09:43:23;;;;;;;47.65;26.42;;;;;;;;;;8398528;28;20040;-77
2022/03/16 09:47:31;;;;;;;35.17;20.67;;;;;;;;;;8397863;28;20079;-77
2022/03/16 09:51:36;;;;;;;37.70;20.83;;;;;;;;;;8398803;28;20045;-76
2022/03/16 09:55:39;;;;;;;34.17;19.40;;;;;;;;;;8397929;28;20048;-76
2022/03/16 09:59:42;;;;;;;37.70;20.10;;;;;;;;;;8398140;28;20055;-77
2022/03/16 10:03:54;;;;;;;39.20;20.05;;;;;;;;;;8398248;28;20412;-76
2022/03/16 10:08:02;;;;;;;32.25;17.50;;;;;;;;;;8397727;28;20044;-76
2022/03/16 10:17:43;;;;;;;37.30;21.05;;;;;;;;;;8397385;28;20385;-77
2022/03/16 10:20:58;;;;;;;28.40;16.90;;;;;;;;;;8363767;28;20052;-77
2022/03/16 10:25:06;;;;;;;34.67;18.92;;;;;;;;;;8364642;28;20044;-76
2022/03/16 10:29:12;;;;;;;24.73;15.30;;;;;;;;;;8363556;28;20056;-78
2022/03/16 10:33:16;;;;;;;25.08;14.48;;;;;;;;;;8364560;28;20048;-76
2022/03/16 10:37:21;;;;;;;28.42;16.42;;;;;;;;;;8364258;28;20051;-78
2022/03/16 10:50:09;;;;;;;23.83;13.70;;;;;;;;;;8363512;28;20075;-76
2022/03/16 10:54:16;;;;;;;28.65;15.48;;;;;;;;;;8363094;28;20045;-76
2022/03/16 10:58:20;;;;;;;27.42;15.23;;;;;;;;;;8363527;28;20073;-76
2022/03/16 11:02:28;;;;;;;25.75;13.48;;;;;;;;;;8363390;28;20049;-76
2022/03/16 11:06:34;;;;;;;24.25;15.13;;;;;;;;;;8363647;28;20389;-76
2022/03/16 11:10:41;;;;;;;25.33;14.65;;;;;;;;;;8363555;28;20412;-78
2022/03/16 11:14:47;;;;;;;27.60;14.90;;;;;;;;;;8362677;28;20053;-77
2022/03/16 11:18:51;;;;;;;26.30;14.43;;;;;;;;;;8375659;28;20056;-76
2022/03/16 11:27:41;;;;;;;24.85;14.63;;;;;;;;;;8395985;28;20045;-77
2022/03/16 11:31:44;;;;;;;30.30;15.88;;;;;;;;;;8400014;28;20073;-77
2022/03/16 11:35:52;;;;;;;33.40;17.27;;;;;;;;;;8402133;28;20048;-78
2022/03/16 11:40:09;;;;;;;30.48;16.35;;;;;;;;;;8401967;28;20048;-76
2022/03/16 11:44:29;;;;;;;26.77;14.90;;;;;;;;;;8402791;28;20056;-77
2022/03/16 11:48:56;;;;;;;32.97;15.20;;;;;;;;;;8402012;28;20053;-76
2022/03/16 11:53:05;;;;;;;30.42;14.77;;;;;;;;;;8401968;28;20055;-76
2022/03/16 11:57:09;;;;;;;26.30;14.18;;;;;;;;;;8375286;28;20099;-76
2022/03/16 12:01:31;;;;;;;24.15;14.10;;;;;;;;;;8368443;28;20432;-77
2022/03/16 12:05:59;;;;;;;25.92;14.60;;;;;;;;;;8367500;28;20053;-77
2022/03/16 12:10:11;;;;;;;25.70;14.93;;;;;;;;;;8368134;28;20049;-77
2022/03/16 12:14:21;;;;;;;21.52;13.85;;;;;;;;;;8368737;28;20100;-77
2022/03/16 12:18:28;;;;;;;23.27;12.55;;;;;;;;;;8367915;28;20053;-77
2022/03/16 12:22:37;;;;;;;26.58;16.13;;;;;;;;;;8367966;28;20048;-76
2022/03/16 12:28:55;;;;;;;21.90;12.35;;;;;;;;;;8367512;28;20048;-77
2022/03/16 12:31:07;;;;;;;22.15;13.18;;;;;;;;;;8368152;28;20076;-77
2022/03/16 12:35:12;;;;;;;28.52;17.05;;;;;;;;;;8367462;28;20048;-76
2022/03/16 12:39:17;;;;;;;27.00;15.95;;;;;;;;;;8367156;28;20048;-76
2022/03/16 12:43:22;;;;;;;25.23;14.85;;;;;;;;;;8366990;28;20136;-77
2022/03/16 12:47:30;;;;;;;25.90;15.77;;;;;;;;;;8367638;28;20069;-77
2022/03/16 12:51:37;;;;;;;26.73;15.48;;;;;;;;;;8367174;28;20093;-77
2022/03/16 12:55:56;;;;;;;33.85;18.63;;;;;;;;;;8366506;28;20048;-77
2022/03/16 12:59:59;;;;;;;31.27;18.05;;;;;;;;;;8366942;28;20136;-77
2022/03/16 13:04:04;;;;;;;33.58;16.80;;;;;;;;;;8366466;28;20060;-77
2022/03/16 13:08:08;;;;;;;25.23;15.30;;;;;;;;;;8357451;28;20453;-78
2022/03/16 13:12:12;;;;;;;29.75;17.08;;;;;;;;;;8332001;28;20046;-77
2022/03/16 13:16:35;;;;;;;29.80;14.82;;;;;;;;;;8333441;28;20346;-77
2022/03/16 13:20:38;;;;;;;28.08;17.33;;;;;;;;;;8332969;28;20061;-76
2022/03/16 13:24:44;;;;;;;34.22;16.88;;;;;;;;;;8333252;28;20045;-77
2022/03/16 13:28:47;;;;;;;26.98;16.00;;;;;;;;;;8350604;28;20064;-77
2022/03/16 13:32:53;;;;;;;28.52;17.13;;;;;;;;;;8363961;28;20048;-77
2022/03/16 13:36:56;;;;;;;29.75;16.10;;;;;;;;;;8363508;28;20049;-75
2022/03/16 13:41:12;;;;;;;26.75;15.32;;;;;;;;;;8365626;28;20057;-76
2022/03/16 13:45:18;;;;;;;27.65;15.65;;;;;;;;;;8365712;28;20055;-76
2022/03/16 13:49:22;;;;;;;30.08;16.90;;;;;;;;;;8364922;28;20524;-76
2022/03/16 13:53:27;;;;;;;28.80;16.23;;;;;;;;;;8365015;28;20477;-76
2022/03/16 13:57:34;;;;;;;30.13;15.95;;;;;;;;;;8364985;28;20057;-76
2022/03/16 14:01:39;;;;;;;30.95;17.17;;;;;;;;;;8364871;28;20103;-77
2022/03/16 14:05:42;;;;;;;32.33;16.90;;;;;;;;;;8365039;28;20049;-75
2022/03/16 14:09:46;;;;;;;28.45;17.15;;;;;;;;;;8365422;28;20052;-77
2022/03/16 14:13:52;;;;;;;27.63;16.02;;;;;;;;;;8364358;28;20408;-76
2022/03/16 14:17:58;;;;;;;27.20;15.82;;;;;;;;;;8369086;28;20084;-76
2022/03/16 14:22:03;;;;;;;29.52;16.05;;;;;;;;;;8397372;28;20132;-75
2022/03/16 14:26:07;;;;;;;29.98;15.48;;;;;;;;;;8397307;28;20127;-76
2022/03/16 14:30:14;;;;;;;34.55;17.67;;;;;;;;;;8397512;28;20490;-76
2022/03/16 14:34:27;;;;;;;26.17;16.08;;;;;;;;;;8379154;28;20049;-75
2022/03/16 14:38:32;;;;;;;27.67;14.38;;;;;;;;;;8380755;28;20045;-77
2022/03/16 14:42:35;;;;;;;25.88;15.70;;;;;;;;;;8364121;28;20147;-77
2022/03/16 14:46:51;;;;;;;30.70;15.38;;;;;;;;;;8352159;28;20045;-76
2022/03/16 14:51:06;;;;;;;32.08;18.42;;;;;;;;;;8338344;28;20053;-76
2022/03/16 14:55:12;;;;;;;28.73;16.27;;;;;;;;;;8355024;28;20184;-75
2022/03/16 14:59:34;;;;;;;27.73;15.60;;;;;;;;;;8363153;28;20072;-75
2022/03/16 15:03:44;;;;;;;24.65;14.68;;;;;;;;;;8360909;28;20073;-76
2022/03/16 15:07:50;;;;;;;27.05;14.68;;;;;;;;;;8362085;28;20057;-77
2022/03/16 15:12:01;;;;;;;25.30;14.73;;;;;;;;;;8340518;28;20405;-76
2022/03/16 15:16:18;;;;;;;41.63;22.95;;;;;;;;;;8329436;28;20057;-76
2022/03/16 15:20:37;;;;;;;27.88;16.02;;;;;;;;;;8329779;28;20065;-76
2022/03/16 15:24:45;;;;;;;25.88;14.82;;;;;;;;;;8329531;28;20045;-76
2022/03/16 15:28:59;;;;;;;26.33;14.93;;;;;;;;;;8349189;28;20073;-76
2022/03/16 15:33:11;;;;;;;22.55;13.82;;;;;;;;;;8362898;28;20151;-76
2022/03/16 15:37:20;;;;;;;23.45;13.30;;;;;;;;;;8363045;28;20048;-76
2022/03/16 15:46:03;;;;;;;24.95;14.15;;;;;;;;;;8357667;28;20052;-76
2022/03/16 15:50:23;;;;;;;31.73;16.55;;;;;;;;;;8358636;28;20076;-76
2022/03/16 15:54:37;;;;;;;31.45;17.90;;;;;;;;;;8360333;28;20037;-75
2022/03/16 15:58:49;;;;;;;30.10;16.05;;;;;;;;;;8359922;28;20520;-77
2022/03/16 16:03:02;;;;;;;32.03;18.67;;;;;;;;;;8359687;28;20123;-76
2022/03/16 16:07:26;;;;;;;33.42;17.15;;;;;;;;;;8360756;28;20052;-76
2022/03/16 16:11:47;;;;;;;46.05;24.30;;;;;;;;;;8359525;28;20433;-76
2022/03/16 16:15:57;;;;;;;83.07;27.17;;;;;;;;;;8359532;28;20139;-76
2022/03/16 16:20:11;;;;;;;59.92;22.88;;;;;;;;;;8394390;28;20059;-77
2022/03/16 16:24:19;;;;;;;75.93;26.98;;;;;;;;;;8400732;28;20064;-76
2022/03/16 16:28:25;;;;;;;83.10;30.25;;;;;;;;;;8400434;28;20048;-75
2022/03/16 16:32:28;;;;;;;52.25;22.67;;;;;;;;;;8401151;28;20541;-76
2022/03/16 16:36:34;;;;;;;29.95;15.18;;;;;;;;;;8351668;28;20057;-76
2022/03/16 16:40:44;;;;;;;28.58;16.42;;;;;;;;;;8348981;28;20097;-76
2022/03/16 16:44:55;;;;;;;30.17;16.67;;;;;;;;;;8382255;28;20082;-76
2022/03/16 16:49:05;;;;;;;61.85;25.23;;;;;;;;;;8369825;28;20045;-77
2022/03/16 16:53:15;;;;;;;95.90;29.23;;;;;;;;;;8391469;28;20036;-76
2022/03/16 16:57:20;;;;;;;75.50;25.08;;;;;;;;;;8393940;28;20048;-76
2022/03/16 17:01:25;;;;;;;43.95;17.27;;;;;;;;;;8394196;28;20048;-76
2022/03/16 17:05:30;;;;;;;55.20;18.92;;;;;;;;;;8390056;28;20036;-76
2022/03/16 17:09:33;;;;;;;44.85;19.70;;;;;;;;;;8396627;28;20049;-76
2022/03/16 17:13:36;;;;;;;109.97;34.17;;;;;;;;;;8393210;28;20041;-76
2022/03/16 17:17:42;;;;;;;46.13;20.80;;;;;;;;;;8395271;28;20416;-76
2022/03/16 17:21:51;;;;;;;39.55;16.98;;;;;;;;;;8396855;28;20534;-76
2022/03/16 17:25:58;;;;;;;33.38;15.40;;;;;;;;;;8378942;28;20051;-75
2022/03/16 17:30:05;;;;;;;35.40;16.13;;;;;;;;;;8390768;28;20094;-76
2022/03/16 17:34:12;;;;;;;34.88;15.20;;;;;;;;;;8393744;28;20055;-77
2022/03/16 17:38:18;;;;;;;53.80;20.10;;;;;;;;;;8393395;28;20049;-74
2022/03/16 17:46:52;;;;;;;45.63;19.13;;;;;;;;;;8391754;28;20050;-77
2022/03/16 17:51:10;;;;;;;49.55;19.85;;;;;;;;;;8395243;28;20407;-77
2022/03/16 17:59:37;;;;;;;38.60;19.88;;;;;;;;;;8394000;28;20060;-76
2022/03/16 18:03:42;;;;;;;35.40;19.50;;;;;;;;;;8374066;28;20044;-76
2022/03/16 18:07:50;;;;;;;36.63;19.65;;;;;;;;;;8396297;28;20072;-76
2022/03/16 18:16:19;;;;;;;32.17;15.40;;;;;;;;;;8395918;28;20131;-77
2022/03/16 18:20:22;;;;;;;43.50;18.58;;;;;;;;;;8394791;28;20055;-77
2022/03/16 18:24:32;;;;;;;35.33;18.70;;;;;;;;;;8394507;28;20455;-76
2022/03/16 18:28:40;;;;;;;41.53;19.73;;;;;;;;;;8378775;28;20404;-77
2022/03/16 18:32:46;;;;;;;29.63;15.15;;;;;;;;;;8394049;28;20499;-76
2022/03/16 18:36:51;;;;;;;38.22;16.20;;;;;;;;;;8395693;28;20047;-77
2022/03/16 18:41:06;;;;;;;38.35;18.13;;;;;;;;;;8378104;28;20064;-78
2022/03/16 18:45:20;;;;;;;45.22;21.73;;;;;;;;;;8388349;28;20042;-77
2022/03/16 18:49:35;;;;;;;33.67;16.63;;;;;;;;;;8388207;28;20123;-76
2022/03/16 18:53:49;;;;;;;44.78;22.75;;;;;;;;;;8377003;28;20472;-76
2022/03/16 18:58:09;;;;;;;47.00;21.90;;;;;;;;;;8378408;28;20075;-76
2022/03/16 19:02:25;;;;;;;42.28;21.65;;;;;;;;;;8376631;28;20550;-77
2022/03/16 19:06:40;;;;;;;40.72;21.75;;;;;;;;;;8379742;28;20044;-76
2022/03/16 19:15:25;;;;;;;41.78;20.73;;;;;;;;;;8377507;28;20060;-77
2022/03/16 19:19:31;;;;;;;42.25;19.95;;;;;;;;;;8381986;28;20131;-76
2022/03/16 19:23:38;;;;;;;34.97;18.50;;;;;;;;;;8379437;28;20037;-77
2022/03/16 19:27:49;;;;;;;39.92;18.77;;;;;;;;;;8378604;28;20046;-76
2022/03/16 19:32:02;;;;;;;39.95;19.23;;;;;;;;;;8378659;28;21061;-76
2022/03/16 19:36:11;;;;;;;43.03;22.55;;;;;;;;;;8381684;28;20139;-76
2022/03/16 19:40:23;;;;;;;45.53;22.80;;;;;;;;;;8372785;28;20499;-76
2022/03/16 19:44:33;;;;;;;54.05;26.17;;;;;;;;;;8378482;28;20053;-77
2022/03/16 19:48:42;;;;;;;43.15;19.50;;;;;;;;;;8378246;28;20040;-77
2022/03/16 19:52:48;;;;;;;53.40;22.40;;;;;;;;;;8381659;28;20048;-74
2022/03/16 19:56:55;;;;;;;49.22;21.75;;;;;;;;;;8382739;28;20052;-76
2022/03/16 20:01:05;;;;;;;53.95;23.95;;;;;;;;;;8371432;28;20040;-77
2022/03/16 20:05:12;;;;;;;50.88;23.05;;;;;;;;;;8385472;28;20140;-76
2022/03/16 20:09:15;;;;;;;52.60;25.15;;;;;;;;;;8397003;28;20544;-77
2022/03/16 20:13:19;;;;;;;52.60;25.80;;;;;;;;;;8402118;28;20041;-77
2022/03/16 20:17:22;;;;;;;51.58;24.38;;;;;;;;;;8401288;28;20147;-77
2022/03/16 20:21:27;;;;;;;49.70;24.30;;;;;;;;;;8401064;28;20049;-77
2022/03/16 20:25:31;;;;;;;57.22;27.35;;;;;;;;;;8401691;28;20048;-77
2022/03/16 20:29:34;;;;;;;56.97;25.75;;;;;;;;;;8401563;28;20404;-76
2022/03/16 20:33:38;;;;;;;63.83;26.38;;;;;;;;;;8400969;28;20140;-77
2022/03/16 20:37:44;;;;;;;62.58;28.38;;;;;;;;;;8401441;28;20071;-77
2022/03/16 20:41:47;;;;;;;66.35;28.13;;;;;;;;;;8401046;28;20048;-76
2022/03/16 20:45:51;;;;;;;48.58;24.50;;;;;;;;;;8400758;28;20101;-77
2022/03/16 20:49:56;;;;;;;118.63;46.95;;;;;;;;;;8400771;28;20127;-76
2022/03/16 20:54:02;;;;;;;79.38;36.50;;;;;;;;;;8400455;28;20049;-76
2022/03/16 20:58:05;;;;;;;90.57;37.35;;;;;;;;;;8401002;28;20044;-77
2022/03/16 21:02:10;;;;;;;91.25;38.20;;;;;;;;;;8400614;28;20049;-76
2022/03/16 21:06:15;;;;;;;142.55;59.92;;;;;;;;;;8399383;28;20044;-77
2022/03/16 21:10:20;;;;;;;102.55;44.65;;;;;;;;;;8400094;28;20048;-77
2022/03/16 21:14:23;;;;;;;141.02;50.67;;;;;;;;;;8366783;28;20511;-77
2022/03/16 21:18:30;;;;;;;106.70;43.45;;;;;;;;;;8366359;28;20089;-77
2022/03/16 21:22:35;;;;;;;107.32;47.50;;;;;;;;;;8388132;28;20075;-77
2022/03/16 21:26:41;;;;;;;98.82;38.53;;;;;;;;;;8399334;28;20055;-75
2022/03/16 21:30:46;;;;;;;118.88;42.15;;;;;;;;;;8399154;28;20045;-77
2022/03/16 21:34:49;;;;;;;84.38;35.75;;;;;;;;;;8399420;28;20040;-77
2022/03/16 21:38:52;;;;;;;108.13;50.58;;;;;;;;;;8398900;28;20040;-77
2022/03/16 21:42:57;;;;;;;105.13;40.17;;;;;;;;;;8398931;28;20060;-77
2022/03/16 21:46:59;;;;;;;93.35;37.45;;;;;;;;;;8398814;28;20148;-78
2022/03/16 21:55:25;;;;;;;;;;;;;;;;;;8373081;28;20048;-77
2022/03/16 21:59:29;;;;;;;;;;;;;;;;;;8399146;28;19955;-77
2022/03/16 22:03:31;;;;;;;76.28;30.63;;;;;;;;;;8398126;28;19940;-77
2022/03/16 22:07:35;;;;;;;79.97;32.03;;;;;;;;;;8398116;28;20127;-76
2022/03/16 22:11:38;;;;;;;75.13;33.42;;;;;;;;;;8397847;28;20040;-77
2022/03/16 22:15:42;;;;;;;77.10;35.65;;;;;;;;;;8397248;28;20044;-77
2022/03/16 22:19:44;;;;;;;73.18;34.10;;;;;;;;;;8372023;28;20140;-77
2022/03/16 22:23:47;;;;;;;73.22;34.50;;;;;;;;;;8354201;28;20045;-76
2022/03/16 22:27:50;;;;;;;80.88;34.17;;;;;;;;;;8360824;28;20045;-76
2022/03/16 22:31:54;;;;;;;74.63;32.42;;;;;;;;;;8359861;28;20049;-78
2022/03/16 22:35:56;;;;;;;73.63;34.45;;;;;;;;;;8359790;28;20404;-77
2022/03/16 22:39:59;;;;;;;72.50;32.25;;;;;;;;;;8359624;28;20052;-77
2022/03/16 22:44:02;;;;;;;77.05;32.50;;;;;;;;;;8362965;28;20404;-78
2022/03/16 22:48:07;;;;;;;79.35;33.78;;;;;;;;;;8362726;28;20048;-78
2022/03/16 22:52:09;;;;;;;77.78;33.47;;;;;;;;;;8362627;28;20048;-77
2022/03/16 22:56:12;;;;;;;91.38;38.58;;;;;;;;;;8362367;28;20135;-76
2022/03/16 23:00:24;;;;;;;91.30;40.00;;;;;;;;;;8362020;28;20045;-76
2022/03/16 23:04:28;;;;;;;88.07;40.38;;;;;;;;;;8361477;28;20037;-77
2022/03/16 23:08:31;;;;;;;95.95;39.75;;;;;;;;;;8361357;28;20099;-77
2022/03/16 23:12:33;;;;;;;95.38;41.10;;;;;;;;;;8363143;28;20049;-77
2022/03/16 23:16:37;;;;;;;93.30;36.83;;;;;;;;;;8361738;28;20087;-78
2022/03/16 23:20:41;;;;;;;85.68;37.22;;;;;;;;;;8359520;28;20563;-78
2022/03/16 23:24:44;;;;;;;82.22;35.42;;;;;;;;;;8355944;28;20045;-77
2022/03/16 23:28:47;;;;;;;86.40;35.90;;;;;;;;;;8366475;28;20045;-77
2022/03/16 23:32:49;;;;;;;101.28;39.92;;;;;;;;;;8367196;28;20044;-77
2022/03/16 23:36:53;;;;;;;91.43;41.03;;;;;;;;;;8367174;28;20040;-79
2022/03/16 23:40:56;;;;;;;95.63;40.65;;;;;;;;;;8367135;28;20059;-77
2022/03/16 23:44:59;;;;;;;87.95;37.35;;;;;;;;;;8365258;28;20065;-78
2022/03/16 23:49:02;;;;;;;93.72;40.70;;;;;;;;;;8368375;28;20469;-77
2022/03/16 23:53:06;;;;;;;89.00;39.28;;;;;;;;;;8367407;28;20048;-77
2022/03/16 23:57:09;;;;;;;84.60;34.03;;;;;;;;;;8369063;28;20072;-77
